Faneromeni — SVKG — position and weather

sailwx.info

Track history (hours):
 
Tides and Currents Weather Stations Pressure Air Temp Water Temp Dewpoint Dewpoint Depression Visibility Wind Speed Wind Dir Waves Ship Positions

Faneromeni

Last reported at 2016-Feb-04 22:15 UTC. Time now 2016-Feb-08 10:08 UTC.
Position N 50°25' W 000°34'.

Length 230 m; draft 12 m.

Type: Cargo ship. MMSI: 240576000.

Date/timePositionNaut miles runAvg speedWind from/ knotsBaromVisibWave heightAir tempDewpointWater temp
2016-Feb-04 22:15N 50°25' W 000°34'1012.3
2016-Feb-04 21:24N 50°27' W 000°18'1011.7
2016-Feb-04 20:32N 50°30' W 000°03'1311.0
2016-Feb-04 19:21N 50°33' E 000°17'810.5
2016-Feb-04 18:33N 50°36' E 000°29'1010.2
2016-Feb-04 17:33N 50°40' E 000°44'1110.7
2016-Feb-04 16:33N 50°46' E 000°58'1211.6
2016-Feb-04 15:33N 50°52' E 001°14'1212.4
2016-Feb-04 14:33N 51°01' E 001°27'1211.9
2016-Feb-04 13:33N 51°10' E 001°40'1111.1
2016-Feb-04 12:33N 51°18' E 001°52'1010.3
2016-Feb-04 11:33N 51°27' E 002°01'10 9.9
2016-Feb-04 10:33N 51°35' E 002°11'10 9.5
2016-Feb-04 09:33N 51°42' E 002°21'10 9.6
2016-Feb-04 08:32N 51°50' E 002°30'6711.1
2016-Feb-04 02:31N 52°43' E 003°37'1111.0
2016-Feb-04 01:33N 52°51' E 003°48'1110.5
2016-Feb-04 00:31N 52°59' E 004°00'1010.2
2016-Feb-03 23:33N 53°05' E 004°13'1210.5
2016-Feb-03 22:27N 53°14' E 004°26'3010.4
2016-Feb-03 19:33N 53°35' E 005°01'1110.6
2016-Feb-03 18:33N 53°38' E 005°19'1010.0
2016-Feb-03 17:33N 53°41' E 005°34'10 9.5
2016-Feb-03 16:33N 53°44' E 005°50'8 8.6
2016-Feb-03 15:33N 53°47' E 006°03'8 8.2
2016-Feb-03 14:32N 53°49' E 006°17'8 7.7
2016-Feb-03 13:33N 53°51' E 006°29'8 7.6
2016-Feb-03 12:33N 53°53' E 006°42'7 7.4
2016-Feb-03 11:33N 53°55' E 006°54'8 7.8
2016-Feb-03 10:33N 53°56' E 007°07'8 8.0
2016-Feb-03 09:33N 53°58' E 007°20'8 8.1
2016-Feb-03 08:33N 54°01' E 007°34'8 7.5
2016-Feb-03 07:33N 54°02' E 007°46'8 7.5
2016-Feb-03 06:33N 54°02' E 007°59'7 6.7
2016-Feb-03 05:33N 54°01' E 008°10'6 6.2
2016-Feb-03 04:33N 53°60' E 008°21'7 7.4
2016-Feb-03 03:33N 53°58' E 008°33'9 8.8
2016-Feb-03 02:33N 53°52' E 008°44'1010.2
2016-Feb-03 01:33N 53°51' E 009°01'1010.2
2016-Feb-03 00:32N 53°51' E 009°19'1111.3
2016-Feb-02 23:33N 53°42' E 009°30'1010.3
2016-Feb-02 22:33N 53°34' E 009°41'9 8.9
2016-Feb-02 21:33N 53°32' E 009°55'3 3.1
2016-Feb-02 20:33N 53°30' E 009°59'0 0.1
2016-Feb-02 19:32N 53°30' E 009°59'0 0.0
2016-Feb-02 18:29N 53°30' E 009°59'0 0.0
2016-Feb-02 17:32N 53°30' E 009°59'0 0.0
2016-Feb-02 16:32N 53°30' E 009°59'0 0.0
2016-Feb-02 15:32N 53°30' E 009°59'0 0.0
2016-Feb-02 14:29N 53°30' E 009°59'0 0.0
2016-Feb-02 13:32N 53°30' E 009°59'0 0.0
2016-Feb-02 12:32N 53°30' E 009°59'0 0.0
2016-Feb-02 11:32N 53°30' E 009°59'0 0.0
2016-Feb-02 10:32N 53°30' E 009°59'0 0.0
2016-Feb-02 09:32N 53°30' E 009°59'0 0.0
2016-Feb-02 08:32N 53°30' E 009°59'0 0.0
2016-Feb-02 07:32N 53°30' E 009°59'0 0.0
2016-Feb-02 06:32N 53°30' E 009°59'0 0.0
2016-Feb-02 05:32N 53°30' E 009°59'0 0.0
2016-Feb-02 04:32N 53°30' E 009°59'0 0.0
2016-Feb-02 03:32N 53°30' E 009°59'0 0.0
2016-Feb-02 02:32N 53°30' E 009°59'0 0.0
2016-Feb-02 01:26N 53°30' E 009°59'0 0.0
2016-Feb-02 00:32N 53°30' E 009°59'0 0.0
2016-Feb-01 23:32N 53°30' E 009°59'0 0.0
2016-Feb-01 22:32N 53°30' E 009°59'0 0.0
2016-Feb-01 21:32N 53°30' E 009°59'0 0.0
2016-Feb-01 20:29N 53°30' E 009°59'0 0.0
2016-Feb-01 19:32N 53°30' E 009°59'0 0.0
2016-Feb-01 18:32N 53°30' E 009°59'0 0.0
2016-Feb-01 17:32N 53°30' E 009°59'0 0.0
2016-Feb-01 16:32N 53°30' E 009°59'0 0.0
2016-Feb-01 15:32N 53°30' E 009°59'0 0.0
2016-Feb-01 14:32N 53°30' E 009°59'0 0.0
2016-Feb-01 13:32N 53°30' E 009°59'0 0.0
2016-Feb-01 12:32N 53°30' E 009°59'0 0.0
2016-Feb-01 11:32N 53°30' E 009°59'0 0.0
2016-Feb-01 10:32N 53°30' E 009°59'0 0.0
2016-Feb-01 09:32N 53°30' E 009°59'0 0.0
2016-Feb-01 08:32N 53°30' E 009°59'0 0.0
2016-Feb-01 07:26N 53°30' E 009°59'0 0.0
2016-Feb-01 06:32N 53°30' E 009°59'0 0.0
2016-Feb-01 05:32N 53°30' E 009°59'0 0.0
2016-Feb-01 04:32N 53°30' E 009°59'0 0.0
2016-Feb-01 03:32N 53°30' E 009°59'0 0.0
2016-Feb-01 02:32N 53°30' E 009°59'0 0.0
2016-Feb-01 01:32N 53°30' E 009°59'0 0.0
2016-Feb-01 00:32N 53°30' E 009°59'0 0.0
2016-Jan-31 23:32N 53°30' E 009°59'0 0.0
2016-Jan-31 22:32N 53°30' E 009°59'0 0.0
2016-Jan-31 21:32N 53°30' E 009°59'0 0.0
2016-Jan-31 20:32N 53°30' E 009°59'0 0.0
2016-Jan-31 19:32N 53°30' E 009°59'0 0.0
2016-Jan-31 18:32N 53°30' E 009°59'0 0.0
2016-Jan-31 17:32N 53°30' E 009°59'0 0.0
2016-Jan-31 16:32N 53°30' E 009°59'0 0.0
2016-Jan-31 15:32N 53°30' E 009°59'0 0.0
2016-Jan-31 14:32N 53°30' E 009°59'0 0.0
2016-Jan-31 13:32N 53°30' E 009°59'0 0.0
2016-Jan-31 12:32N 53°30' E 009°59'0 0.0
2016-Jan-31 11:32N 53°30' E 009°59'0 0.0
2016-Jan-31 10:32N 53°30' E 009°59'0 0.0
2016-Jan-31 09:32N 53°30' E 009°59'0 0.0
2016-Jan-31 08:32N 53°30' E 009°59'0 0.0
2016-Jan-31 07:32N 53°30' E 009°59'0 0.0
2016-Jan-31 06:32N 53°30' E 009°59'0 0.0
2016-Jan-31 05:32N 53°30' E 009°59'0 0.0
2016-Jan-31 04:32N 53°30' E 009°59'0 0.0
2016-Jan-31 03:32N 53°30' E 009°59'0 0.0
2016-Jan-31 02:32N 53°30' E 009°59'0 0.0
2016-Jan-31 01:32N 53°30' E 009°59'0 0.0
2016-Jan-31 00:32N 53°30' E 009°59'0 0.0
2016-Jan-30 23:32N 53°30' E 009°59'0 0.0
2016-Jan-30 22:32N 53°30' E 009°59'0 0.0
2016-Jan-30 21:26N 53°30' E 009°59'0 0.0
2016-Jan-30 20:32N 53°30' E 009°59'0 0.0
2016-Jan-30 19:32N 53°30' E 009°59'0 0.0
2016-Jan-30 18:32N 53°30' E 009°59'0 0.0
2016-Jan-30 17:32N 53°30' E 009°59'0 0.0
2016-Jan-30 16:32N 53°30' E 009°59'0 0.0
2016-Jan-30 15:32N 53°30' E 009°59'0 0.0
2016-Jan-30 14:32N 53°30' E 009°59'0 0.0
2016-Jan-30 13:32N 53°30' E 009°59'0 0.0
2016-Jan-30 12:32N 53°30' E 009°59'0 0.0
2016-Jan-30 11:32N 53°30' E 009°59'0 0.0
2016-Jan-30 10:32N 53°30' E 009°59'0 0.0
2016-Jan-30 09:29N 53°30' E 009°59'0 0.0
2016-Jan-30 08:32N 53°30' E 009°59'0 0.0
2016-Jan-30 07:32N 53°30' E 009°59'0 0.0
2016-Jan-30 06:32N 53°30' E 009°59'0 0.0
2016-Jan-30 05:32N 53°30' E 009°59'0 0.0
2016-Jan-30 04:32N 53°30' E 009°59'0 0.0
2016-Jan-30 03:26N 53°30' E 009°59'0 0.0
2016-Jan-30 02:32N 53°30' E 009°59'0 0.0
2016-Jan-30 01:32N 53°30' E 009°59'0 0.0
2016-Jan-30 00:32N 53°30' E 009°59'0 0.0
2016-Jan-29 23:32N 53°30' E 009°59'0 0.0
2016-Jan-29 22:32N 53°30' E 009°59'0 0.0
2016-Jan-29 21:32N 53°30' E 009°59'0 0.0
2016-Jan-29 20:32N 53°30' E 009°59'0 0.0
2016-Jan-29 19:32N 53°30' E 009°59'0 0.0
2016-Jan-29 18:32N 53°30' E 009°59'0 0.0
2016-Jan-29 17:32N 53°30' E 009°59'0 0.0
2016-Jan-29 16:32N 53°30' E 009°59'0 0.0
2016-Jan-29 15:29N 53°30' E 009°59'0 0.0
2016-Jan-29 14:32N 53°30' E 009°59'0 0.0
2016-Jan-29 13:32N 53°30' E 009°59'0 0.0
2016-Jan-29 12:29N 53°30' E 009°59'0 0.0
2016-Jan-29 11:32N 53°30' E 009°59'0 0.0
2016-Jan-29 10:32N 53°30' E 009°59'0 0.0
2016-Jan-29 09:32N 53°30' E 009°59'0 0.0
2016-Jan-29 08:32N 53°30' E 009°59'0 0.0
2016-Jan-29 07:32N 53°30' E 009°59'0 0.0
2016-Jan-29 06:32N 53°30' E 009°59'0 0.0
2016-Jan-29 05:32N 53°30' E 009°59'0 0.0
2016-Jan-29 04:32N 53°30' E 009°59'0 0.0
2016-Jan-29 03:32N 53°30' E 009°59'0 0.0
2016-Jan-29 02:32N 53°30' E 009°59'0 0.0
2016-Jan-29 01:32N 53°30' E 009°59'0 0.0
2016-Jan-29 00:32N 53°30' E 009°59'0 0.0
2016-Jan-28 23:32N 53°30' E 009°59'0 0.0
2016-Jan-28 22:32N 53°30' E 009°59'0 0.0
2016-Jan-28 21:32N 53°30' E 009°59'0 0.0
2016-Jan-28 20:32N 53°30' E 009°59'0 0.0
2016-Jan-28 19:32N 53°30' E 009°59'0 0.0
2016-Jan-28 18:32N 53°30' E 009°59'0 0.0
2016-Jan-28 17:32N 53°30' E 009°59'0 0.0
2016-Jan-28 16:29N 53°30' E 009°59'0 0.0
2016-Jan-28 15:32N 53°30' E 009°59'0 0.0
2016-Jan-28 14:32N 53°30' E 009°59'0 0.0
2016-Jan-28 13:32N 53°30' E 009°59'0 0.0
2016-Jan-28 12:32N 53°30' E 009°59'0 0.0
2016-Jan-28 11:32N 53°30' E 009°59'0 0.0
2016-Jan-28 10:32N 53°30' E 009°59'0 0.0
2016-Jan-28 09:32N 53°30' E 009°59'0 0.0
2016-Jan-28 08:32N 53°30' E 009°59'0 0.0
2016-Jan-28 07:32N 53°30' E 009°59'0 0.0
2016-Jan-28 06:32N 53°30' E 009°59'0 0.0
2016-Jan-28 05:32N 53°30' E 009°59'0 0.0
2016-Jan-28 04:32N 53°30' E 009°59'0 0.0
2016-Jan-28 03:32N 53°30' E 009°59'0 0.0
2016-Jan-28 02:32N 53°30' E 009°59'0 0.0
2016-Jan-28 01:32N 53°30' E 009°59'0 0.0
2016-Jan-28 00:32N 53°30' E 009°59'0 0.0
2016-Jan-27 23:32N 53°30' E 009°59'0 0.0
2016-Jan-27 22:32N 53°30' E 009°59'0 0.0
2016-Jan-27 21:32N 53°30' E 009°59'0 0.0
2016-Jan-27 20:32N 53°30' E 009°59'0 0.0
2016-Jan-27 19:32N 53°30' E 009°59'0 0.0
2016-Jan-27 18:32N 53°30' E 009°59'0 0.0
2016-Jan-27 17:32N 53°30' E 009°59'0 0.1
2016-Jan-27 16:32N 53°30' E 009°59'0 0.0
2016-Jan-27 15:32N 53°30' E 009°59'0 0.0
2016-Jan-27 14:32N 53°30' E 009°59'0 0.0
2016-Jan-27 13:32N 53°30' E 009°59'0 0.0
2016-Jan-27 12:32N 53°30' E 009°59'0 0.0
2016-Jan-27 11:32N 53°30' E 009°59'0 0.0
2016-Jan-27 10:32N 53°30' E 009°59'0 0.0
2016-Jan-27 09:32N 53°30' E 009°59'0 0.0
2016-Jan-27 08:32N 53°30' E 009°59'0 0.0
2016-Jan-27 07:32N 53°30' E 009°59'0 0.0
2016-Jan-27 06:32N 53°30' E 009°59'0 0.0
2016-Jan-27 05:32N 53°30' E 009°59'0 0.0
2016-Jan-27 04:32N 53°30' E 009°59'0 0.0
2016-Jan-27 03:32N 53°30' E 009°59'0 0.0
2016-Jan-27 02:32N 53°30' E 009°59'0 0.0
2016-Jan-27 01:32N 53°30' E 009°59'0 0.0
2016-Jan-27 00:32N 53°30' E 009°59'0 0.0
2016-Jan-26 23:32N 53°30' E 009°59'0 0.0
2016-Jan-26 22:32N 53°30' E 009°59'0 0.0
2016-Jan-26 21:32N 53°30' E 009°59'0 0.0
2016-Jan-26 20:32N 53°30' E 009°59'0 0.0
2016-Jan-26 19:32N 53°30' E 009°59'0 0.0
2016-Jan-26 18:32N 53°30' E 009°59'0 0.0
2016-Jan-26 17:32N 53°30' E 009°59'0 0.0
2016-Jan-26 16:32N 53°30' E 009°59'0 0.0
2016-Jan-26 15:32N 53°30' E 009°59'0 0.0
2016-Jan-26 14:32N 53°30' E 009°59'0 0.0
2016-Jan-26 13:32N 53°30' E 009°59'0 0.0
2016-Jan-26 12:32N 53°30' E 009°59'0 0.0
2016-Jan-26 11:32N 53°30' E 009°59'0 0.0
2016-Jan-26 10:32N 53°30' E 009°59'0 0.0
2016-Jan-26 09:32N 53°30' E 009°59'0 0.0
2016-Jan-26 08:32N 53°30' E 009°59'0 0.0
2016-Jan-26 07:32N 53°30' E 009°59'0 0.0
2016-Jan-26 06:32N 53°30' E 009°59'0 0.0
2016-Jan-26 05:32N 53°30' E 009°59'0 0.0
2016-Jan-26 04:32N 53°30' E 009°59'0 0.0
2016-Jan-26 03:32N 53°30' E 009°59'0 0.0
2016-Jan-26 02:32N 53°30' E 009°59'0 0.0
2016-Jan-26 01:32N 53°30' E 009°59'0 0.0
2016-Jan-26 00:32N 53°30' E 009°59'0 0.0
2016-Jan-25 23:32N 53°30' E 009°59'0 0.0
2016-Jan-25 22:32N 53°30' E 009°59'  
Track history (hours):
 
Tides and Currents Weather Stations Pressure Air Temp Water Temp Dewpoint Dewpoint Depression Visibility Wind Speed Wind Dir Waves Ship Positions

Faneromeni

Last reported at 2016-Feb-04 22:15 UTC. Time now 2016-Feb-08 10:08 UTC.
Position N 50°25' W 000°34'.

Length 230 m; draft 12 m.

Type: Cargo ship. MMSI: 240576000.

Date/timePositionNaut miles runAvg speedWind from/ knotsBaromVisibWave heightAir tempDewpointWater temp
2016-Feb-04 22:15N 50°25' W 000°34'1012.3
2016-Feb-04 21:24N 50°27' W 000°18'1011.7
2016-Feb-04 20:32N 50°30' W 000°03'1311.0
2016-Feb-04 19:21N 50°33' E 000°17'810.5
2016-Feb-04 18:33N 50°36' E 000°29'1010.2
2016-Feb-04 17:33N 50°40' E 000°44'1110.7
2016-Feb-04 16:33N 50°46' E 000°58'1211.6
2016-Feb-04 15:33N 50°52' E 001°14'1212.4
2016-Feb-04 14:33N 51°01' E 001°27'1211.9
2016-Feb-04 13:33N 51°10' E 001°40'1111.1
2016-Feb-04 12:33N 51°18' E 001°52'1010.3
2016-Feb-04 11:33N 51°27' E 002°01'10 9.9
2016-Feb-04 10:33N 51°35' E 002°11'10 9.5
2016-Feb-04 09:33N 51°42' E 002°21'10 9.6
2016-Feb-04 08:32N 51°50' E 002°30'6711.1
2016-Feb-04 02:31N 52°43' E 003°37'1111.0
2016-Feb-04 01:33N 52°51' E 003°48'1110.5
2016-Feb-04 00:31N 52°59' E 004°00'1010.2
2016-Feb-03 23:33N 53°05' E 004°13'1210.5
2016-Feb-03 22:27N 53°14' E 004°26'3010.4
2016-Feb-03 19:33N 53°35' E 005°01'1110.6
2016-Feb-03 18:33N 53°38' E 005°19'1010.0
2016-Feb-03 17:33N 53°41' E 005°34'10 9.5
2016-Feb-03 16:33N 53°44' E 005°50'8 8.6
2016-Feb-03 15:33N 53°47' E 006°03'8 8.2
2016-Feb-03 14:32N 53°49' E 006°17'8 7.7
2016-Feb-03 13:33N 53°51' E 006°29'8 7.6
2016-Feb-03 12:33N 53°53' E 006°42'7 7.4
2016-Feb-03 11:33N 53°55' E 006°54'8 7.8
2016-Feb-03 10:33N 53°56' E 007°07'8 8.0
2016-Feb-03 09:33N 53°58' E 007°20'8 8.1
2016-Feb-03 08:33N 54°01' E 007°34'8 7.5
2016-Feb-03 07:33N 54°02' E 007°46'8 7.5
2016-Feb-03 06:33N 54°02' E 007°59'7 6.7
2016-Feb-03 05:33N 54°01' E 008°10'6 6.2
2016-Feb-03 04:33N 53°60' E 008°21'7 7.4
2016-Feb-03 03:33N 53°58' E 008°33'9 8.8
2016-Feb-03 02:33N 53°52' E 008°44'1010.2
2016-Feb-03 01:33N 53°51' E 009°01'1010.2
2016-Feb-03 00:32N 53°51' E 009°19'1111.3
2016-Feb-02 23:33N 53°42' E 009°30'1010.3
2016-Feb-02 22:33N 53°34' E 009°41'9 8.9
2016-Feb-02 21:33N 53°32' E 009°55'3 3.1
2016-Feb-02 20:33N 53°30' E 009°59'0 0.1
2016-Feb-02 19:32N 53°30' E 009°59'0 0.0
2016-Feb-02 18:29N 53°30' E 009°59'0 0.0
2016-Feb-02 17:32N 53°30' E 009°59'0 0.0
2016-Feb-02 16:32N 53°30' E 009°59'0 0.0
2016-Feb-02 15:32N 53°30' E 009°59'0 0.0
2016-Feb-02 14:29N 53°30' E 009°59'0 0.0
2016-Feb-02 13:32N 53°30' E 009°59'0 0.0
2016-Feb-02 12:32N 53°30' E 009°59'0 0.0
2016-Feb-02 11:32N 53°30' E 009°59'0 0.0
2016-Feb-02 10:32N 53°30' E 009°59'0 0.0
2016-Feb-02 09:32N 53°30' E 009°59'0 0.0
2016-Feb-02 08:32N 53°30' E 009°59'0 0.0
2016-Feb-02 07:32N 53°30' E 009°59'0 0.0
2016-Feb-02 06:32N 53°30' E 009°59'0 0.0
2016-Feb-02 05:32N 53°30' E 009°59'0 0.0
2016-Feb-02 04:32N 53°30' E 009°59'0 0.0
2016-Feb-02 03:32N 53°30' E 009°59'0 0.0
2016-Feb-02 02:32N 53°30' E 009°59'0 0.0
2016-Feb-02 01:26N 53°30' E 009°59'0 0.0
2016-Feb-02 00:32N 53°30' E 009°59'0 0.0
2016-Feb-01 23:32N 53°30' E 009°59'0 0.0
2016-Feb-01 22:32N 53°30' E 009°59'0 0.0
2016-Feb-01 21:32N 53°30' E 009°59'0 0.0
2016-Feb-01 20:29N 53°30' E 009°59'0 0.0
2016-Feb-01 19:32N 53°30' E 009°59'0 0.0
2016-Feb-01 18:32N 53°30' E 009°59'0 0.0
2016-Feb-01 17:32N 53°30' E 009°59'0 0.0
2016-Feb-01 16:32N 53°30' E 009°59'0 0.0
2016-Feb-01 15:32N 53°30' E 009°59'0 0.0
2016-Feb-01 14:32N 53°30' E 009°59'0 0.0
2016-Feb-01 13:32N 53°30' E 009°59'0 0.0
2016-Feb-01 12:32N 53°30' E 009°59'0 0.0
2016-Feb-01 11:32N 53°30' E 009°59'0 0.0
2016-Feb-01 10:32N 53°30' E 009°59'0 0.0
2016-Feb-01 09:32N 53°30' E 009°59'0 0.0
2016-Feb-01 08:32N 53°30' E 009°59'0 0.0
2016-Feb-01 07:26N 53°30' E 009°59'0 0.0
2016-Feb-01 06:32N 53°30' E 009°59'0 0.0
2016-Feb-01 05:32N 53°30' E 009°59'0 0.0
2016-Feb-01 04:32N 53°30' E 009°59'0 0.0
2016-Feb-01 03:32N 53°30' E 009°59'0 0.0
2016-Feb-01 02:32N 53°30' E 009°59'0 0.0
2016-Feb-01 01:32N 53°30' E 009°59'0 0.0
2016-Feb-01 00:32N 53°30' E 009°59'0 0.0
2016-Jan-31 23:32N 53°30' E 009°59'0 0.0
2016-Jan-31 22:32N 53°30' E 009°59'0 0.0
2016-Jan-31 21:32N 53°30' E 009°59'0 0.0
2016-Jan-31 20:32N 53°30' E 009°59'0 0.0
2016-Jan-31 19:32N 53°30' E 009°59'0 0.0
2016-Jan-31 18:32N 53°30' E 009°59'0 0.0
2016-Jan-31 17:32N 53°30' E 009°59'0 0.0
2016-Jan-31 16:32N 53°30' E 009°59'0 0.0
2016-Jan-31 15:32N 53°30' E 009°59'0 0.0
2016-Jan-31 14:32N 53°30' E 009°59'0 0.0
2016-Jan-31 13:32N 53°30' E 009°59'0 0.0
2016-Jan-31 12:32N 53°30' E 009°59'0 0.0
2016-Jan-31 11:32N 53°30' E 009°59'0 0.0
2016-Jan-31 10:32N 53°30' E 009°59'0 0.0
2016-Jan-31 09:32N 53°30' E 009°59'0 0.0
2016-Jan-31 08:32N 53°30' E 009°59'0 0.0
2016-Jan-31 07:32N 53°30' E 009°59'0 0.0
2016-Jan-31 06:32N 53°30' E 009°59'0 0.0
2016-Jan-31 05:32N 53°30' E 009°59'0 0.0
2016-Jan-31 04:32N 53°30' E 009°59'0 0.0
2016-Jan-31 03:32N 53°30' E 009°59'0 0.0
2016-Jan-31 02:32N 53°30' E 009°59'0 0.0
2016-Jan-31 01:32N 53°30' E 009°59'0 0.0
2016-Jan-31 00:32N 53°30' E 009°59'0 0.0
2016-Jan-30 23:32N 53°30' E 009°59'0 0.0
2016-Jan-30 22:32N 53°30' E 009°59'0 0.0
2016-Jan-30 21:26N 53°30' E 009°59'0 0.0
2016-Jan-30 20:32N 53°30' E 009°59'0 0.0
2016-Jan-30 19:32N 53°30' E 009°59'0 0.0
2016-Jan-30 18:32N 53°30' E 009°59'0 0.0
2016-Jan-30 17:32N 53°30' E 009°59'0 0.0
2016-Jan-30 16:32N 53°30' E 009°59'0 0.0
2016-Jan-30 15:32N 53°30' E 009°59'0 0.0
2016-Jan-30 14:32N 53°30' E 009°59'0 0.0
2016-Jan-30 13:32N 53°30' E 009°59'0 0.0
2016-Jan-30 12:32N 53°30' E 009°59'0 0.0
2016-Jan-30 11:32N 53°30' E 009°59'0 0.0
2016-Jan-30 10:32N 53°30' E 009°59'0 0.0
2016-Jan-30 09:29N 53°30' E 009°59'0 0.0
2016-Jan-30 08:32N 53°30' E 009°59'0 0.0
2016-Jan-30 07:32N 53°30' E 009°59'0 0.0
2016-Jan-30 06:32N 53°30' E 009°59'0 0.0
2016-Jan-30 05:32N 53°30' E 009°59'0 0.0
2016-Jan-30 04:32N 53°30' E 009°59'0 0.0
2016-Jan-30 03:26N 53°30' E 009°59'0 0.0
2016-Jan-30 02:32N 53°30' E 009°59'0 0.0
2016-Jan-30 01:32N 53°30' E 009°59'0 0.0
2016-Jan-30 00:32N 53°30' E 009°59'0 0.0
2016-Jan-29 23:32N 53°30' E 009°59'0 0.0
2016-Jan-29 22:32N 53°30' E 009°59'0 0.0
2016-Jan-29 21:32N 53°30' E 009°59'0 0.0
2016-Jan-29 20:32N 53°30' E 009°59'0 0.0
2016-Jan-29 19:32N 53°30' E 009°59'0 0.0
2016-Jan-29 18:32N 53°30' E 009°59'0 0.0
2016-Jan-29 17:32N 53°30' E 009°59'0 0.0
2016-Jan-29 16:32N 53°30' E 009°59'0 0.0
2016-Jan-29 15:29N 53°30' E 009°59'0 0.0
2016-Jan-29 14:32N 53°30' E 009°59'0 0.0
2016-Jan-29 13:32N 53°30' E 009°59'0 0.0
2016-Jan-29 12:29N 53°30' E 009°59'0 0.0
2016-Jan-29 11:32N 53°30' E 009°59'0 0.0
2016-Jan-29 10:32N 53°30' E 009°59'0 0.0
2016-Jan-29 09:32N 53°30' E 009°59'0 0.0
2016-Jan-29 08:32N 53°30' E 009°59'0 0.0
2016-Jan-29 07:32N 53°30' E 009°59'0 0.0
2016-Jan-29 06:32N 53°30' E 009°59'0 0.0
2016-Jan-29 05:32N 53°30' E 009°59'0 0.0
2016-Jan-29 04:32N 53°30' E 009°59'0 0.0
2016-Jan-29 03:32N 53°30' E 009°59'0 0.0
2016-Jan-29 02:32N 53°30' E 009°59'0 0.0
2016-Jan-29 01:32N 53°30' E 009°59'0 0.0
2016-Jan-29 00:32N 53°30' E 009°59'0 0.0
2016-Jan-28 23:32N 53°30' E 009°59'0 0.0
2016-Jan-28 22:32N 53°30' E 009°59'0 0.0
2016-Jan-28 21:32N 53°30' E 009°59'0 0.0
2016-Jan-28 20:32N 53°30' E 009°59'0 0.0
2016-Jan-28 19:32N 53°30' E 009°59'0 0.0
2016-Jan-28 18:32N 53°30' E 009°59'0 0.0
2016-Jan-28 17:32N 53°30' E 009°59'0 0.0
2016-Jan-28 16:29N 53°30' E 009°59'0 0.0
2016-Jan-28 15:32N 53°30' E 009°59'0 0.0
2016-Jan-28 14:32N 53°30' E 009°59'0 0.0
2016-Jan-28 13:32N 53°30' E 009°59'0 0.0
2016-Jan-28 12:32N 53°30' E 009°59'0 0.0
2016-Jan-28 11:32N 53°30' E 009°59'0 0.0
2016-Jan-28 10:32N 53°30' E 009°59'0 0.0
2016-Jan-28 09:32N 53°30' E 009°59'0 0.0
2016-Jan-28 08:32N 53°30' E 009°59'0 0.0
2016-Jan-28 07:32N 53°30' E 009°59'0 0.0
2016-Jan-28 06:32N 53°30' E 009°59'0 0.0
2016-Jan-28 05:32N 53°30' E 009°59'0 0.0
2016-Jan-28 04:32N 53°30' E 009°59'0 0.0
2016-Jan-28 03:32N 53°30' E 009°59'0 0.0
2016-Jan-28 02:32N 53°30' E 009°59'0 0.0
2016-Jan-28 01:32N 53°30' E 009°59'0 0.0
2016-Jan-28 00:32N 53°30' E 009°59'0 0.0
2016-Jan-27 23:32N 53°30' E 009°59'0 0.0
2016-Jan-27 22:32N 53°30' E 009°59'0 0.0
2016-Jan-27 21:32N 53°30' E 009°59'0 0.0
2016-Jan-27 20:32N 53°30' E 009°59'0 0.0
2016-Jan-27 19:32N 53°30' E 009°59'0 0.0
2016-Jan-27 18:32N 53°30' E 009°59'0 0.0
2016-Jan-27 17:32N 53°30' E 009°59'0 0.1
2016-Jan-27 16:32N 53°30' E 009°59'0 0.0
2016-Jan-27 15:32N 53°30' E 009°59'0 0.0
2016-Jan-27 14:32N 53°30' E 009°59'0 0.0
2016-Jan-27 13:32N 53°30' E 009°59'0 0.0
2016-Jan-27 12:32N 53°30' E 009°59'0 0.0
2016-Jan-27 11:32N 53°30' E 009°59'0 0.0
2016-Jan-27 10:32N 53°30' E 009°59'0 0.0
2016-Jan-27 09:32N 53°30' E 009°59'0 0.0
2016-Jan-27 08:32N 53°30' E 009°59'0 0.0
2016-Jan-27 07:32N 53°30' E 009°59'0 0.0
2016-Jan-27 06:32N 53°30' E 009°59'0 0.0
2016-Jan-27 05:32N 53°30' E 009°59'0 0.0
2016-Jan-27 04:32N 53°30' E 009°59'0 0.0
2016-Jan-27 03:32N 53°30' E 009°59'0 0.0
2016-Jan-27 02:32N 53°30' E 009°59'0 0.0
2016-Jan-27 01:32N 53°30' E 009°59'0 0.0
2016-Jan-27 00:32N 53°30' E 009°59'0 0.0
2016-Jan-26 23:32N 53°30' E 009°59'0 0.0
2016-Jan-26 22:32N 53°30' E 009°59'0 0.0
2016-Jan-26 21:32N 53°30' E 009°59'0 0.0
2016-Jan-26 20:32N 53°30' E 009°59'0 0.0
2016-Jan-26 19:32N 53°30' E 009°59'0 0.0
2016-Jan-26 18:32N 53°30' E 009°59'0 0.0
2016-Jan-26 17:32N 53°30' E 009°59'0 0.0
2016-Jan-26 16:32N 53°30' E 009°59'0 0.0
2016-Jan-26 15:32N 53°30' E 009°59'0 0.0
2016-Jan-26 14:32N 53°30' E 009°59'0 0.0
2016-Jan-26 13:32N 53°30' E 009°59'0 0.0
2016-Jan-26 12:32N 53°30' E 009°59'0 0.0
2016-Jan-26 11:32N 53°30' E 009°59'0 0.0
2016-Jan-26 10:32N 53°30' E 009°59'0 0.0
2016-Jan-26 09:32N 53°30' E 009°59'0 0.0
2016-Jan-26 08:32N 53°30' E 009°59'0 0.0
2016-Jan-26 07:32N 53°30' E 009°59'0 0.0
2016-Jan-26 06:32N 53°30' E 009°59'0 0.0
2016-Jan-26 05:32N 53°30' E 009°59'0 0.0
2016-Jan-26 04:32N 53°30' E 009°59'0 0.0
2016-Jan-26 03:32N 53°30' E 009°59'0 0.0
2016-Jan-26 02:32N 53°30' E 009°59'0 0.0
2016-Jan-26 01:32N 53°30' E 009°59'0 0.0
2016-Jan-26 00:32N 53°30' E 009°59'0 0.0
2016-Jan-25 23:32N 53°30' E 009°59'0 0.0
2016-Jan-25 22:32N 53°30' E 009°59'  

Dump ship's entire track history